Goodfood, Mississippi
Current Conditions -  °F | °C
As of 2:53 PM on Saturday 22 Nov 2014 (Local Time) from KTUP Reporting Station
Light Rain Light Rain  
Wind Chill: 67°   Ceiling: Unl
Heat Index: 67°   Visibility: 10mi
Dew Point: 43°   Wind: 15mph
Humidity: 42%   Direction: 200°SSW
Pressure: 30.12"   Gusts: NA
Location:  34.1762°N, 88.9612°W
Report Text: KTUP 222053Z 20013KT 10SM -RA CLR 19/06 A3012 RMK AO2 SLP196 P0000 60000 T01940061 56036 $
Loading
Personal Weather Stations






























Interactive Weather Map New forecast layout! Learn more

10-Day Weather Forecast

Advertisements
Track Severe Weather on mobile